Details for Ryanair at LMML




Go Back


Latest METAR
Local Time

LMML 212315Z 28003KT 9999 FEW015 20/19 Q1017 NOSIG

22/06/2018, 01:36:21

Description
Results
Ryanair Logo
Number of Pilots based at LMML
0 Pilots Based here
Number of Ryanair Flights Departed from LMML
5 Flights Departed
Number of Ryanair Flights Arrived at LMML
7 Flights Arrived
Number of Ryanair Schedules Departing from LMML
90 Schedules
Number of Ryanair Schedules Arriving at LMML
90 Schedules
Number of Ryanair Schedules Departing from LMML availible today
22 Schedules Today
Number of Ryanair Schedules Arriving at LMML availible today
22 Schedules Today
Average Landing Rate at LMML
-223 fpm
Ryanair Average Landing Rate at LMML
-207 fpm
Total Fuel Purchased at LMML by Ryanair
45,259.88 kgs / 99,779.93 lbs

Pilots Based at LMML


Pilot ID
Pilot Name
Pilot Rank
No. of Flights
No. of Flying Hours
There are no pilots assigned to this hub!   Will you be the first?
Content